Time;durP1;ratioP1;P1;durP2;ratioP2;P2;SDS_P1;SDS_P2;PMS_P1;PMS_P2;Temp;Humidity;BMP_temperature;BMP_pressure;BME280_temperature;BME280_humidity;BME280_pressure;Samples;Min_cycle;Max_cycle;Signal;HPM_P1;HPM_P2
2022/10/31 00:01:02;;;;;;;25.92;15.05;;;;;;;;;;5037193;28;20037;-77
2022/10/31 00:03:28;;;;;;;22.63;15.27;;;;;;;;;;5036231;28;20073;-77
2022/10/31 00:05:54;;;;;;;29.38;14.93;;;;;;;;;;5038308;28;20041;-77
2022/10/31 00:08:20;;;;;;;24.10;15.15;;;;;;;;;;5036908;28;20046;-77
2022/10/31 00:10:46;;;;;;;24.83;15.50;;;;;;;;;;5036902;28;20057;-77
2022/10/31 00:13:13;;;;;;;24.45;14.80;;;;;;;;;;5036320;28;20045;-78
2022/10/31 00:15:40;;;;;;;25.73;14.93;;;;;;;;;;5034135;28;20041;-77
2022/10/31 00:18:07;;;;;;;26.52;15.63;;;;;;;;;;5034697;28;20073;-77
2022/10/31 00:20:33;;;;;;;27.77;14.52;;;;;;;;;;5029293;28;20037;-77
2022/10/31 00:23:03;;;;;;;25.60;14.45;;;;;;;;;;5036805;28;20045;-77
2022/10/31 00:25:30;;;;;;;26.88;15.70;;;;;;;;;;5035576;28;20055;-77
2022/10/31 00:27:56;;;;;;;21.70;14.75;;;;;;;;;;5036626;28;20103;-77
2022/10/31 00:30:22;;;;;;;28.08;15.70;;;;;;;;;;5035457;28;20081;-77
2022/10/31 00:32:48;;;;;;;26.13;16.40;;;;;;;;;;5036820;28;20053;-77
2022/10/31 00:35:14;;;;;;;23.45;14.38;;;;;;;;;;5035355;28;20057;-77
2022/10/31 00:37:40;;;;;;;25.65;15.43;;;;;;;;;;5036504;28;20101;-77
2022/10/31 00:40:07;;;;;;;28.55;16.00;;;;;;;;;;5036815;28;20484;-77
2022/10/31 00:42:33;;;;;;;27.55;15.80;;;;;;;;;;5036795;28;20090;-77
2022/10/31 00:44:59;;;;;;;27.10;15.52;;;;;;;;;;5041417;28;20049;-77
2022/10/31 00:47:25;;;;;;;26.45;14.90;;;;;;;;;;5036745;28;20061;-77
2022/10/31 00:49:51;;;;;;;27.95;15.32;;;;;;;;;;5035982;28;20041;-77
2022/10/31 00:52:17;;;;;;;28.13;16.23;;;;;;;;;;5037124;28;20055;-77
2022/10/31 00:54:43;;;;;;;28.25;14.65;;;;;;;;;;5032772;28;20077;-77
2022/10/31 00:57:09;;;;;;;24.92;14.95;;;;;;;;;;5029129;28;20042;-77
2022/10/31 00:59:35;;;;;;;31.35;14.93;;;;;;;;;;5022355;28;20060;-77
2022/10/31 01:02:01;;;;;;;24.30;15.10;;;;;;;;;;5035603;28;20057;-77
2022/10/31 01:04:27;;;;;;;24.55;14.98;;;;;;;;;;5036444;28;20049;-77
2022/10/31 01:06:53;;;;;;;24.10;15.23;;;;;;;;;;5035112;28;20079;-77
2022/10/31 01:09:19;;;;;;;26.27;14.73;;;;;;;;;;5036806;28;20049;-77
2022/10/31 01:11:45;;;;;;;27.95;15.25;;;;;;;;;;4998362;28;1096559;-77
2022/10/31 01:14:11;;;;;;;21.67;14.38;;;;;;;;;;5025832;28;20066;-77
2022/10/31 01:16:37;;;;;;;25.75;15.88;;;;;;;;;;5035238;28;20121;-77
2022/10/31 01:19:03;;;;;;;26.83;14.98;;;;;;;;;;5037949;28;20065;-77
2022/10/31 01:21:30;;;;;;;27.98;16.20;;;;;;;;;;5023397;28;20053;-77
2022/10/31 01:23:56;;;;;;;26.25;16.65;;;;;;;;;;5037794;28;20481;-77
2022/10/31 01:26:23;;;;;;;23.70;16.25;;;;;;;;;;5038131;28;20069;-77
2022/10/31 01:28:57;;;;;;;28.52;17.13;;;;;;;;;;5024306;28;20073;-77
2022/10/31 01:31:24;;;;;;;29.00;16.70;;;;;;;;;;5039228;28;20050;-77
2022/10/31 01:33:50;;;;;;;29.17;17.00;;;;;;;;;;5039051;28;20041;-77
2022/10/31 01:36:16;;;;;;;27.77;17.60;;;;;;;;;;5039091;28;20041;-77
2022/10/31 01:38:42;;;;;;;32.83;18.08;;;;;;;;;;5040253;28;20121;-77
2022/10/31 01:41:10;;;;;;;27.80;17.35;;;;;;;;;;5042650;28;20042;-77
2022/10/31 01:43:42;;;;;;;28.33;17.10;;;;;;;;;;5043028;28;20065;-77
2022/10/31 01:46:09;;;;;;;28.90;17.48;;;;;;;;;;5042473;28;20053;-76
2022/10/31 01:48:35;;;;;;;25.77;17.73;;;;;;;;;;5041625;28;20042;-77
2022/10/31 01:51:03;;;;;;;23.90;15.95;;;;;;;;;;5038086;28;20053;-77
2022/10/31 01:53:29;;;;;;;23.42;16.63;;;;;;;;;;5038915;28;20050;-77
2022/10/31 01:55:55;;;;;;;24.88;16.77;;;;;;;;;;5037045;28;20045;-77
2022/10/31 01:58:23;;;;;;;28.55;16.70;;;;;;;;;;5026296;28;20065;-77
2022/10/31 02:00:51;;;;;;;25.58;16.90;;;;;;;;;;5040872;28;20041;-77
2022/10/31 02:03:17;;;;;;;30.05;18.00;;;;;;;;;;5032507;28;20041;-77
2022/10/31 02:05:44;;;;;;;27.45;17.63;;;;;;;;;;5034611;28;20087;-77
2022/10/31 02:08:14;;;;;;;29.92;17.38;;;;;;;;;;5037696;28;20049;-77
2022/10/31 02:10:40;;;;;;;27.70;17.60;;;;;;;;;;5037481;28;20054;-76
2022/10/31 02:13:07;;;;;;;28.15;17.33;;;;;;;;;;5035125;28;20057;-77
2022/10/31 02:15:33;;;;;;;28.98;17.52;;;;;;;;;;5036902;28;20056;-77
2022/10/31 02:18:00;;;;;;;29.13;18.33;;;;;;;;;;5035901;28;20484;-77
2022/10/31 02:20:27;;;;;;;25.65;17.38;;;;;;;;;;5036501;28;20049;-77
2022/10/31 02:23:09;;;;;;;24.20;16.92;;;;;;;;;;5036637;28;20534;-77
2022/10/31 02:25:47;;;;;;;27.17;16.50;;;;;;;;;;5027564;28;20125;-77
2022/10/31 02:28:25;;;;;;;27.08;17.65;;;;;;;;;;5035086;28;20061;-77
2022/10/31 02:31:04;;;;;;;32.15;17.67;;;;;;;;;;5036311;28;20045;-77
2022/10/31 02:33:32;;;;;;;26.85;17.80;;;;;;;;;;5038523;28;20373;-77
2022/10/31 02:36:05;;;;;;;27.73;17.48;;;;;;;;;;5038528;28;20091;-77
2022/10/31 02:38:40;;;;;;;27.77;18.40;;;;;;;;;;5036890;28;20064;-77
2022/10/31 02:41:12;;;;;;;27.15;17.02;;;;;;;;;;5035866;28;20048;-77
2022/10/31 02:43:41;;;;;;;27.88;18.50;;;;;;;;;;5035620;28;20506;-77
2022/10/31 02:46:10;;;;;;;26.23;17.88;;;;;;;;;;5036217;28;20047;-77
2022/10/31 02:48:38;;;;;;;25.80;18.02;;;;;;;;;;5037509;28;20076;-77
2022/10/31 02:51:04;;;;;;;28.05;18.33;;;;;;;;;;5015244;28;20115;-77
2022/10/31 02:53:34;;;;;;;27.17;17.95;;;;;;;;;;5026359;28;20038;-76
2022/10/31 02:56:09;;;;;;;25.05;18.48;;;;;;;;;;5036630;28;20045;-77
2022/10/31 02:58:37;;;;;;;29.08;18.17;;;;;;;;;;5035773;28;20164;-77
2022/10/31 03:01:16;;;;;;;29.17;19.00;;;;;;;;;;5036085;28;20053;-77
2022/10/31 03:03:45;;;;;;;27.58;17.58;;;;;;;;;;5036883;28;20038;-77
2022/10/31 03:06:17;;;;;;;28.75;17.90;;;;;;;;;;5031439;28;20056;-77
2022/10/31 03:08:43;;;;;;;28.30;18.20;;;;;;;;;;5035643;28;20404;-77
2022/10/31 03:11:10;;;;;;;28.55;17.95;;;;;;;;;;5020401;28;20076;-77
2022/10/31 03:13:36;;;;;;;29.40;18.25;;;;;;;;;;5035412;28;20053;-77
2022/10/31 03:16:08;;;;;;;29.25;18.40;;;;;;;;;;5036564;28;20105;-77
2022/10/31 03:18:37;;;;;;;28.75;18.25;;;;;;;;;;5031652;28;20062;-77
2022/10/31 03:21:06;;;;;;;31.23;17.73;;;;;;;;;;5036467;28;20045;-77
2022/10/31 03:23:33;;;;;;;29.25;17.75;;;;;;;;;;5036225;28;20050;-77
2022/10/31 03:26:01;;;;;;;31.45;18.33;;;;;;;;;;5034590;28;20068;-77
2022/10/31 03:28:29;;;;;;;30.17;18.48;;;;;;;;;;5023273;28;20128;-77
2022/10/31 03:30:57;;;;;;;26.27;17.02;;;;;;;;;;5036067;28;20171;-77
2022/10/31 03:33:27;;;;;;;27.05;16.98;;;;;;;;;;5035472;28;20049;-77
2022/10/31 03:35:54;;;;;;;26.70;16.92;;;;;;;;;;5047507;28;20180;-77
2022/10/31 03:38:20;;;;;;;24.98;16.83;;;;;;;;;;5029466;28;20493;-77
2022/10/31 03:40:47;;;;;;;25.85;16.48;;;;;;;;;;5035664;28;20041;-77
2022/10/31 03:43:17;;;;;;;27.92;16.58;;;;;;;;;;5035393;28;20418;-77
2022/10/31 03:45:45;;;;;;;24.15;16.30;;;;;;;;;;5034906;28;20425;-76
2022/10/31 03:48:12;;;;;;;27.58;16.92;;;;;;;;;;5033656;28;20053;-77
2022/10/31 03:51:01;;;;;;;26.13;16.83;;;;;;;;;;5042636;28;20073;-77
2022/10/31 03:53:33;;;;;;;26.65;17.13;;;;;;;;;;5021640;28;20053;-77
2022/10/31 03:55:59;;;;;;;26.92;17.50;;;;;;;;;;5036153;28;20057;-77
2022/10/31 03:58:28;;;;;;;30.98;18.92;;;;;;;;;;5035588;28;20037;-77
2022/10/31 04:00:56;;;;;;;27.63;17.63;;;;;;;;;;5035191;28;20046;-77
2022/10/31 04:03:30;;;;;;;27.73;17.90;;;;;;;;;;5037663;28;20041;-77
2022/10/31 04:05:58;;;;;;;27.38;17.17;;;;;;;;;;5037603;28;20092;-76
2022/10/31 04:08:28;;;;;;;23.67;16.75;;;;;;;;;;5040012;28;20123;-77
2022/10/31 04:10:55;;;;;;;27.05;17.65;;;;;;;;;;5039409;28;20053;-77
2022/10/31 04:13:23;;;;;;;25.90;17.27;;;;;;;;;;5040749;28;20488;-77
2022/10/31 04:15:50;;;;;;;28.08;17.83;;;;;;;;;;5037690;28;20090;-77
2022/10/31 04:18:16;;;;;;;27.55;17.70;;;;;;;;;;5038912;28;20041;-77
2022/10/31 04:20:42;;;;;;;28.60;17.58;;;;;;;;;;5039352;28;20053;-77
2022/10/31 04:23:19;;;;;;;28.27;17.25;;;;;;;;;;5039157;28;20049;-77
2022/10/31 04:25:45;;;;;;;30.23;18.40;;;;;;;;;;5039781;28;20404;-76
2022/10/31 04:28:11;;;;;;;29.90;17.25;;;;;;;;;;5038673;28;20447;-77
2022/10/31 04:30:37;;;;;;;28.83;18.60;;;;;;;;;;5037622;28;20510;-77
2022/10/31 04:33:03;;;;;;;29.27;17.90;;;;;;;;;;5038419;28;20067;-77
2022/10/31 04:35:29;;;;;;;27.35;18.13;;;;;;;;;;5038167;28;20068;-77
2022/10/31 04:37:55;;;;;;;31.08;18.77;;;;;;;;;;5039056;28;20045;-77
2022/10/31 04:40:21;;;;;;;26.38;16.95;;;;;;;;;;5039449;28;20421;-77
2022/10/31 04:42:47;;;;;;;28.55;17.88;;;;;;;;;;5032809;28;20125;-77
2022/10/31 04:45:13;;;;;;;30.17;18.30;;;;;;;;;;5038711;28;20128;-77
2022/10/31 04:47:39;;;;;;;26.05;18.08;;;;;;;;;;5039705;28;20524;-77
2022/10/31 04:50:05;;;;;;;26.40;18.27;;;;;;;;;;5039560;28;20080;-77
2022/10/31 04:52:31;;;;;;;27.73;18.52;;;;;;;;;;5037016;28;20400;-77
2022/10/31 04:54:57;;;;;;;30.02;19.42;;;;;;;;;;5025919;28;20477;-77
2022/10/31 04:57:23;;;;;;;25.85;17.77;;;;;;;;;;5038223;28;20056;-77
2022/10/31 04:59:50;;;;;;;29.33;19.67;;;;;;;;;;5038181;28;20038;-77
2022/10/31 05:02:16;;;;;;;31.00;18.85;;;;;;;;;;5034190;28;20077;-78
2022/10/31 05:04:42;;;;;;;26.83;17.70;;;;;;;;;;5022713;28;20056;-77
2022/10/31 05:07:08;;;;;;;25.45;18.08;;;;;;;;;;5029493;28;20046;-77
2022/10/31 05:09:34;;;;;;;27.85;17.27;;;;;;;;;;5033614;28;20046;-77
2022/10/31 05:12:00;;;;;;;28.75;17.02;;;;;;;;;;5038785;28;20057;-77
2022/10/31 05:14:26;;;;;;;30.45;18.38;;;;;;;;;;5032815;28;20429;-77
2022/10/31 05:16:52;;;;;;;28.55;18.20;;;;;;;;;;5038098;28;20045;-77
2022/10/31 05:19:18;;;;;;;28.08;18.30;;;;;;;;;;5038488;28;20091;-77
2022/10/31 05:21:44;;;;;;;29.75;18.67;;;;;;;;;;5038313;28;20064;-77
2022/10/31 05:24:10;;;;;;;27.65;18.83;;;;;;;;;;5039422;28;20088;-77
2022/10/31 05:26:36;;;;;;;29.95;20.33;;;;;;;;;;5037260;28;20045;-78
2022/10/31 05:29:02;;;;;;;29.10;19.45;;;;;;;;;;5037808;28;20053;-77
2022/10/31 05:31:28;;;;;;;32.38;18.75;;;;;;;;;;5038499;28;20053;-77
2022/10/31 05:33:54;;;;;;;28.30;18.88;;;;;;;;;;5039424;28;20496;-77
2022/10/31 05:36:20;;;;;;;31.02;18.77;;;;;;;;;;5039688;28;20408;-77
2022/10/31 05:38:46;;;;;;;28.90;18.48;;;;;;;;;;5039763;28;20092;-77
2022/10/31 05:41:12;;;;;;;28.67;19.40;;;;;;;;;;5027277;28;20056;-77
2022/10/31 05:43:38;;;;;;;33.08;19.90;;;;;;;;;;5036107;28;20073;-77
2022/10/31 05:46:04;;;;;;;31.80;20.38;;;;;;;;;;5037700;28;20042;-77
2022/10/31 05:48:30;;;;;;;30.35;20.48;;;;;;;;;;5038957;28;20068;-77
2022/10/31 05:50:56;;;;;;;33.28;20.23;;;;;;;;;;5038860;28;20489;-77
2022/10/31 05:53:22;;;;;;;29.42;19.38;;;;;;;;;;5038227;28;20045;-77
2022/10/31 05:55:48;;;;;;;30.95;20.02;;;;;;;;;;5038122;28;20033;-77
2022/10/31 05:58:14;;;;;;;34.40;19.90;;;;;;;;;;5038533;28;20423;-77
2022/10/31 06:00:40;;;;;;;34.25;19.73;;;;;;;;;;5039051;28;20041;-77
2022/10/31 06:03:07;;;;;;;29.52;19.60;;;;;;;;;;5037964;28;20076;-77
2022/10/31 06:05:34;;;;;;;37.15;20.67;;;;;;;;;;5035376;28;20059;-77
2022/10/31 06:08:00;;;;;;;32.53;20.38;;;;;;;;;;5038197;28;20045;-77
2022/10/31 06:10:27;;;;;;;30.05;20.45;;;;;;;;;;5038855;28;20048;-77
2022/10/31 06:12:53;;;;;;;29.52;20.40;;;;;;;;;;5038555;28;20494;-77
2022/10/31 06:15:19;;;;;;;31.10;19.17;;;;;;;;;;5038637;28;20073;-77
2022/10/31 06:17:45;;;;;;;31.92;20.42;;;;;;;;;;5038792;28;20501;-77
2022/10/31 06:20:11;;;;;;;34.45;20.58;;;;;;;;;;5036964;28;20037;-77
2022/10/31 06:22:37;;;;;;;31.10;19.90;;;;;;;;;;5039162;28;20131;-75
2022/10/31 06:25:03;;;;;;;31.77;19.75;;;;;;;;;;5039442;28;20037;-75
2022/10/31 06:27:30;;;;;;;31.05;20.27;;;;;;;;;;5047216;28;20488;-76
2022/10/31 06:29:56;;;;;;;31.98;22.05;;;;;;;;;;5042739;28;20076;-76
2022/10/31 06:32:22;;;;;;;30.13;19.58;;;;;;;;;;5041835;28;20496;-76
2022/10/31 06:34:48;;;;;;;30.48;19.05;;;;;;;;;;5046928;28;20045;-76
2022/10/31 06:37:15;;;;;;;29.67;19.88;;;;;;;;;;5030079;28;20397;-76
2022/10/31 06:39:41;;;;;;;32.80;21.20;;;;;;;;;;5042474;28;20037;-76
2022/10/31 06:42:07;;;;;;;33.70;20.63;;;;;;;;;;5041874;28;20129;-76
2022/10/31 06:44:33;;;;;;;28.95;20.10;;;;;;;;;;5041689;28;20049;-76
2022/10/31 06:46:59;;;;;;;28.95;19.80;;;;;;;;;;5046382;28;20049;-77
2022/10/31 06:49:25;;;;;;;27.60;19.42;;;;;;;;;;5039754;28;20500;-76
2022/10/31 06:51:51;;;;;;;29.38;19.70;;;;;;;;;;5042888;28;20033;-76
2022/10/31 06:54:17;;;;;;;28.48;20.55;;;;;;;;;;5029259;28;20049;-77
2022/10/31 06:56:46;;;;;;;25.77;18.85;;;;;;;;;;5041909;28;20112;-76
2022/10/31 06:59:12;;;;;;;30.30;19.02;;;;;;;;;;5034153;28;20056;-76
2022/10/31 07:01:38;;;;;;;30.60;19.60;;;;;;;;;;5040880;28;20065;-76
2022/10/31 07:04:05;;;;;;;27.02;19.08;;;;;;;;;;5041810;28;20440;-77
2022/10/31 07:06:31;;;;;;;31.25;19.05;;;;;;;;;;5041473;28;20096;-76
2022/10/31 07:08:57;;;;;;;33.00;20.23;;;;;;;;;;5039290;28;20045;-77
2022/10/31 07:11:23;;;;;;;29.02;20.02;;;;;;;;;;5034593;28;20053;-77
2022/10/31 07:13:49;;;;;;;29.23;19.23;;;;;;;;;;5041832;28;20076;-77
2022/10/31 07:16:15;;;;;;;27.65;18.70;;;;;;;;;;5042021;28;20095;-77
2022/10/31 07:18:41;;;;;;;28.65;19.15;;;;;;;;;;5024000;28;20068;-76
2022/10/31 07:21:07;;;;;;;28.40;19.10;;;;;;;;;;5041662;28;20072;-77
2022/10/31 07:23:33;;;;;;;26.55;18.75;;;;;;;;;;5037917;28;20052;-76
2022/10/31 07:25:59;;;;;;;29.05;19.63;;;;;;;;;;5037770;28;20045;-77
2022/10/31 07:28:26;;;;;;;30.80;19.60;;;;;;;;;;5034561;28;20050;-76
2022/10/31 07:30:53;;;;;;;32.42;19.83;;;;;;;;;;5031384;28;20112;-76
2022/10/31 07:33:19;;;;;;;29.83;20.25;;;;;;;;;;5032649;28;20041;-76
2022/10/31 07:35:45;;;;;;;30.60;20.23;;;;;;;;;;5038435;28;20041;-76
2022/10/31 07:38:12;;;;;;;28.70;19.95;;;;;;;;;;5037250;28;20046;-76
2022/10/31 07:40:39;;;;;;;27.17;19.35;;;;;;;;;;5042184;28;20101;-76
2022/10/31 07:43:05;;;;;;;35.00;21.30;;;;;;;;;;5042852;28;20049;-76
2022/10/31 07:45:31;;;;;;;28.38;19.58;;;;;;;;;;5040975;28;20430;-76
2022/10/31 07:47:57;;;;;;;25.17;18.88;;;;;;;;;;5036405;28;20069;-76
2022/10/31 07:50:24;;;;;;;27.55;19.60;;;;;;;;;;5035376;28;20044;-77
2022/10/31 07:53:04;;;;;;;26.05;18.17;;;;;;;;;;5038204;28;20037;-77
2022/10/31 07:55:30;;;;;;;29.90;19.40;;;;;;;;;;5040188;28;20075;-77
2022/10/31 07:57:57;;;;;;;26.67;18.75;;;;;;;;;;5039625;28;20049;-79
2022/10/31 08:00:23;;;;;;;29.63;19.90;;;;;;;;;;5040260;28;20076;-79
2022/10/31 08:02:56;;;;;;;30.00;20.17;;;;;;;;;;5046670;28;20042;-78
2022/10/31 08:05:22;;;;;;;30.48;20.40;;;;;;;;;;5053202;28;20053;-76
2022/10/31 08:07:49;;;;;;;28.75;20.05;;;;;;;;;;5056019;28;20048;-75
2022/10/31 08:10:15;;;;;;;30.40;20.65;;;;;;;;;;5059734;28;20041;-76
2022/10/31 08:12:41;;;;;;;33.03;20.20;;;;;;;;;;5059183;28;20053;-75
2022/10/31 08:15:07;;;;;;;27.85;19.27;;;;;;;;;;5056345;28;20049;-76
2022/10/31 08:17:35;;;;;;;24.70;18.63;;;;;;;;;;5056027;28;20049;-77
2022/10/31 08:20:02;;;;;;;26.75;18.02;;;;;;;;;;5049083;28;20045;-77
2022/10/31 08:22:28;;;;;;;25.55;19.08;;;;;;;;;;5052261;28;20124;-75
2022/10/31 08:24:54;;;;;;;29.02;18.80;;;;;;;;;;5052892;28;20048;-77
2022/10/31 08:27:20;;;;;;;25.98;18.90;;;;;;;;;;5057645;28;20042;-76
2022/10/31 08:29:46;;;;;;;30.25;18.70;;;;;;;;;;5036791;28;20072;-75
2022/10/31 08:32:12;;;;;;;29.55;19.45;;;;;;;;;;5053595;28;20109;-76
2022/10/31 08:34:38;;;;;;;25.13;17.42;;;;;;;;;;5049034;28;20071;-77
2022/10/31 08:37:04;;;;;;;22.02;17.02;;;;;;;;;;5045747;28;20041;-78
2022/10/31 08:39:30;;;;;;;24.30;16.40;;;;;;;;;;5052872;28;20101;-77
2022/10/31 08:41:56;;;;;;;23.23;17.05;;;;;;;;;;5041634;28;20065;-75
2022/10/31 08:44:22;;;;;;;24.98;17.08;;;;;;;;;;5037177;28;20046;-81
2022/10/31 08:46:48;;;;;;;24.27;16.75;;;;;;;;;;5036510;28;20052;-82
2022/10/31 08:49:14;;;;;;;24.38;16.40;;;;;;;;;;5034484;28;20053;-81
2022/10/31 08:51:40;;;;;;;32.65;16.75;;;;;;;;;;5027994;28;20046;-83
2022/10/31 08:54:06;;;;;;;26.35;16.75;;;;;;;;;;5030333;28;20099;-83
2022/10/31 08:56:32;;;;;;;26.80;15.88;;;;;;;;;;5014515;28;20045;-82
2022/10/31 08:58:58;;;;;;;20.15;15.68;;;;;;;;;;5027927;28;20045;-83
2022/10/31 09:01:24;;;;;;;22.08;16.38;;;;;;;;;;5034762;28;20680;-82
2022/10/31 09:03:50;;;;;;;21.48;15.38;;;;;;;;;;5030267;28;20046;-82
2022/10/31 09:06:16;;;;;;;25.05;16.10;;;;;;;;;;5029494;28;20049;-82
2022/10/31 09:08:42;;;;;;;23.02;15.73;;;;;;;;;;5034729;28;20543;-82
2022/10/31 09:11:08;;;;;;;20.13;14.88;;;;;;;;;;5033331;28;20093;-82
2022/10/31 09:13:34;;;;;;;20.95;14.73;;;;;;;;;;5027200;28;20056;-81
2022/10/31 09:16:00;;;;;;;21.98;14.05;;;;;;;;;;5031587;28;20056;-82
2022/10/31 09:18:31;;;;;;;19.05;15.13;;;;;;;;;;5013946;28;20045;-82
2022/10/31 09:20:58;;;;;;;19.80;13.38;;;;;;;;;;5035534;28;20057;-83
2022/10/31 09:23:24;;;;;;;19.58;13.38;;;;;;;;;;5041837;28;20071;-83
2022/10/31 09:25:51;;;;;;;18.52;12.25;;;;;;;;;;5042003;28;20511;-82
2022/10/31 09:28:19;;;;;;;21.60;13.82;;;;;;;;;;5038827;28;20139;-82
2022/10/31 09:30:47;;;;;;;16.52;11.85;;;;;;;;;;5035322;28;20037;-82
2022/10/31 09:33:13;;;;;;;15.07;11.52;;;;;;;;;;5035415;28;20041;-81
2022/10/31 09:35:40;;;;;;;15.05;11.75;;;;;;;;;;5035304;28;20628;-83
2022/10/31 09:38:07;;;;;;;18.88;11.40;;;;;;;;;;5035187;28;20041;-83
2022/10/31 09:40:35;;;;;;;20.00;11.48;;;;;;;;;;5035140;28;20041;-83
2022/10/31 09:43:10;;;;;;;16.17;10.75;;;;;;;;;;5035093;28;20076;-83
2022/10/31 09:45:56;;;;;;;13.55;10.20;;;;;;;;;;5033752;28;20060;-83
2022/10/31 09:48:43;;;;;;;14.18;10.27;;;;;;;;;;5026295;28;20476;-84
2022/10/31 09:51:10;;;;;;;15.35;9.55;;;;;;;;;;5034406;28;20134;-83
2022/10/31 09:53:48;;;;;;;15.60;10.57;;;;;;;;;;5034575;28;20050;-83
2022/10/31 09:56:17;;;;;;;15.65;10.02;;;;;;;;;;5034012;28;20152;-82
2022/10/31 09:58:47;;;;;;;12.07;8.75;;;;;;;;;;5034397;28;20531;-82
2022/10/31 10:01:29;;;;;;;17.92;9.82;;;;;;;;;;5034106;28;20060;-82
2022/10/31 10:03:58;;;;;;;13.10;8.43;;;;;;;;;;5029111;28;20053;-82
2022/10/31 10:06:25;;;;;;;11.38;7.43;;;;;;;;;;5020511;28;20103;-81
2022/10/31 10:08:51;;;;;;;15.27;9.00;;;;;;;;;;5045922;28;20450;-83
2022/10/31 10:11:33;;;;;;;15.55;9.10;;;;;;;;;;5050261;28;20084;-82
2022/10/31 10:14:06;;;;;;;11.80;7.13;;;;;;;;;;5035104;28;20049;-83
2022/10/31 10:16:55;;;;;;;11.48;7.45;;;;;;;;;;5034581;28;20069;-83
2022/10/31 10:19:28;;;;;;;16.50;8.20;;;;;;;;;;5032374;28;20496;-81
2022/10/31 10:22:00;;;;;;;12.15;8.40;;;;;;;;;;5031751;28;20128;-82
2022/10/31 10:24:31;;;;;;;10.43;7.80;;;;;;;;;;5015099;28;20216;-82
2022/10/31 10:27:00;;;;;;;13.63;8.77;;;;;;;;;;5009036;28;20113;-83
2022/10/31 10:29:26;;;;;;;11.57;8.20;;;;;;;;;;5024531;28;20049;-83
2022/10/31 10:31:54;;;;;;;12.73;7.95;;;;;;;;;;5031620;28;20034;-83
2022/10/31 10:34:25;;;;;;;10.02;8.15;;;;;;;;;;5031944;28;20041;-83
2022/10/31 10:37:06;;;;;;;12.18;7.43;;;;;;;;;;5010236;28;20148;-79
2022/10/31 10:39:42;;;;;;;11.73;7.82;;;;;;;;;;5009571;28;20056;-82
2022/10/31 10:47:48;;;;;;;14.03;7.33;;;;;;;;;;5031271;28;20092;-82
2022/10/31 10:50:14;;;;;;;11.55;6.30;;;;;;;;;;5018773;28;20505;-82
2022/10/31 10:52:44;;;;;;;8.10;6.18;;;;;;;;;;5009387;28;20050;-81
2022/10/31 10:55:10;;;;;;;10.00;6.28;;;;;;;;;;5021828;28;20080;-83
2022/10/31 10:57:55;;;;;;;12.13;6.18;;;;;;;;;;5024491;28;20060;-86
2022/10/31 11:00:32;;;;;;;12.20;6.35;;;;;;;;;;5021717;28;20114;-82
2022/10/31 11:02:59;;;;;;;10.13;6.70;;;;;;;;;;5031855;28;20132;-82
2022/10/31 11:05:39;;;;;;;11.45;7.40;;;;;;;;;;5032789;28;20037;-82
2022/10/31 11:08:05;;;;;;;11.18;6.78;;;;;;;;;;5031374;28;20494;-82
2022/10/31 11:10:33;;;;;;;13.23;8.90;;;;;;;;;;5014435;28;20141;-82
2022/10/31 11:13:15;;;;;;;13.05;7.60;;;;;;;;;;5036838;28;20037;-82
2022/10/31 11:15:50;;;;;;;10.63;7.30;;;;;;;;;;5036166;28;20539;-82
2022/10/31 11:18:21;;;;;;;17.20;7.47;;;;;;;;;;5037104;28;20124;-82
2022/10/31 11:20:55;;;;;;;10.85;7.88;;;;;;;;;;5036196;28;20560;-82
2022/10/31 11:23:23;;;;;;;9.70;7.63;;;;;;;;;;5049541;28;20038;-81
2022/10/31 11:25:50;;;;;;;10.50;7.40;;;;;;;;;;5036983;28;20045;-82
2022/10/31 11:28:16;;;;;;;9.82;7.03;;;;;;;;;;5038412;28;20048;-82
2022/10/31 11:30:45;;;;;;;11.45;7.70;;;;;;;;;;5044618;28;20041;-83
2022/10/31 11:33:19;;;;;;;10.80;7.47;;;;;;;;;;5039358;28;20050;-83
2022/10/31 11:35:45;;;;;;;12.38;7.63;;;;;;;;;;5016728;28;20046;-78
2022/10/31 11:38:16;;;;;;;11.43;8.18;;;;;;;;;;5030993;28;20080;-82
2022/10/31 11:40:51;;;;;;;11.30;8.32;;;;;;;;;;5037123;28;20599;-82
2022/10/31 11:43:18;;;;;;;12.73;7.40;;;;;;;;;;5036829;28;20507;-82
2022/10/31 11:45:44;;;;;;;11.98;7.82;;;;;;;;;;5036379;28;20045;-81
2022/10/31 11:48:16;;;;;;;11.52;7.85;;;;;;;;;;5036608;28;20504;-82
2022/10/31 11:50:43;;;;;;;12.52;7.72;;;;;;;;;;5036016;28;20488;-81
2022/10/31 11:53:19;;;;;;;9.63;6.57;;;;;;;;;;5036051;28;20037;-82
2022/10/31 11:55:46;;;;;;;12.73;7.75;;;;;;;;;;5035381;28;20073;-82
2022/10/31 11:58:23;;;;;;;14.10;8.20;;;;;;;;;;5030301;28;20046;-81
2022/10/31 12:00:54;;;;;;;12.77;8.50;;;;;;;;;;5021738;28;20133;-82
2022/10/31 12:03:23;;;;;;;14.82;9.18;;;;;;;;;;5029209;28;20072;-82
2022/10/31 12:06:12;;;;;;;15.77;8.27;;;;;;;;;;5036000;28;20397;-82
2022/10/31 12:08:39;;;;;;;15.25;8.40;;;;;;;;;;5033767;28;20057;-81
2022/10/31 12:11:08;;;;;;;13.15;7.28;;;;;;;;;;5034006;28;20057;-82
2022/10/31 12:13:37;;;;;;;9.93;6.78;;;;;;;;;;5023435;28;20061;-82
2022/10/31 12:16:22;;;;;;;11.40;6.40;;;;;;;;;;5036233;28;20523;-82
2022/10/31 12:18:48;;;;;;;10.10;6.43;;;;;;;;;;5023088;28;20473;-82
2022/10/31 12:21:22;;;;;;;10.18;7.13;;;;;;;;;;5034831;28;20115;-81
2022/10/31 12:23:57;;;;;;;12.63;8.40;;;;;;;;;;5022755;28;20044;-82
2022/10/31 12:26:47;;;;;;;11.03;7.97;;;;;;;;;;5036033;28;20052;-82
2022/10/31 12:29:20;;;;;;;9.55;6.57;;;;;;;;;;5027450;28;20056;-82
2022/10/31 12:32:09;;;;;;;9.57;6.70;;;;;;;;;;5034844;28;20041;-82
2022/10/31 12:34:54;;;;;;;9.48;6.78;;;;;;;;;;5027950;28;20398;-82
2022/10/31 12:37:32;;;;;;;10.45;7.25;;;;;;;;;;5036109;28;20049;-82
2022/10/31 12:40:18;;;;;;;13.70;7.22;;;;;;;;;;5035282;28;20042;-82
2022/10/31 12:42:47;;;;;;;10.90;7.15;;;;;;;;;;5030258;28;20103;-82
2022/10/31 12:45:16;;;;;;;12.27;6.88;;;;;;;;;;5024467;28;20107;-82
2022/10/31 12:47:42;;;;;;;10.65;6.68;;;;;;;;;;5035740;28;20377;-82
2022/10/31 12:50:27;;;;;;;11.90;7.47;;;;;;;;;;5035885;28;20078;-82
2022/10/31 12:53:01;;;;;;;12.40;7.20;;;;;;;;;;5035655;28;20037;-82
2022/10/31 12:55:33;;;;;;;11.32;7.18;;;;;;;;;;5042906;28;20076;-80
2022/10/31 12:58:02;;;;;;;13.68;7.60;;;;;;;;;;5039860;28;20057;-81
2022/10/31 13:00:28;;;;;;;13.52;8.23;;;;;;;;;;5037923;28;20048;-82
2022/10/31 13:02:54;;;;;;;13.13;7.80;;;;;;;;;;5033305;28;20048;-81
2022/10/31 13:05:35;;;;;;;12.82;8.07;;;;;;;;;;5024426;28;20037;-82
2022/10/31 13:08:05;;;;;;;13.07;7.60;;;;;;;;;;5035293;28;20519;-82
2022/10/31 13:10:43;;;;;;;12.25;8.32;;;;;;;;;;5034336;28;20080;-82
2022/10/31 13:13:15;;;;;;;12.30;8.52;;;;;;;;;;5035428;28;20037;-82
2022/10/31 13:16:07;;;;;;;13.40;8.48;;;;;;;;;;5035263;28;20038;-82
2022/10/31 13:18:37;;;;;;;12.57;8.05;;;;;;;;;;5033688;28;20056;-82
2022/10/31 13:21:05;;;;;;;10.82;7.82;;;;;;;;;;5035332;28;20118;-81
2022/10/31 13:23:36;;;;;;;12.80;8.13;;;;;;;;;;5034651;28;20179;-82
2022/10/31 13:26:06;;;;;;;11.25;7.82;;;;;;;;;;5035283;28;20042;-82
2022/10/31 13:28:45;;;;;;;12.77;6.95;;;;;;;;;;5033476;28;20041;-81
2022/10/31 13:31:11;;;;;;;10.15;6.60;;;;;;;;;;5041050;28;20116;-82
2022/10/31 13:33:47;;;;;;;10.25;6.82;;;;;;;;;;5032233;28;20052;-82
2022/10/31 13:36:32;;;;;;;7.70;5.93;;;;;;;;;;5032538;28;20413;-82
2022/10/31 13:39:03;;;;;;;10.98;5.65;;;;;;;;;;5034656;28;20049;-81
2022/10/31 13:41:33;;;;;;;9.25;5.72;;;;;;;;;;5033319;28;20045;-82
2022/10/31 13:43:59;;;;;;;8.98;5.15;;;;;;;;;;5035154;28;20054;-81
2022/10/31 13:46:26;;;;;;;6.85;4.75;;;;;;;;;;5033857;28;20112;-80
2022/10/31 13:48:53;;;;;;;7.15;4.65;;;;;;;;;;5035136;28;20045;-81
2022/10/31 13:51:28;;;;;;;8.98;4.63;;;;;;;;;;5033732;28;20064;-81
2022/10/31 13:53:57;;;;;;;7.13;3.92;;;;;;;;;;5033038;28;20049;-81
2022/10/31 13:56:25;;;;;;;6.38;3.95;;;;;;;;;;5034737;28;20064;-81
2022/10/31 13:59:24;;;;;;;8.40;3.55;;;;;;;;;;5034445;28;20042;-82
2022/10/31 14:02:00;;;;;;;7.85;3.78;;;;;;;;;;5022793;28;20053;-81
2022/10/31 14:04:37;;;;;;;6.22;3.33;;;;;;;;;;5037668;28;20056;-81
2022/10/31 14:07:06;;;;;;;5.05;3.08;;;;;;;;;;5034486;28;20409;-81
2022/10/31 14:09:36;;;;;;;5.75;3.05;;;;;;;;;;5049222;28;20041;-81
2022/10/31 14:12:13;;;;;;;5.03;3.10;;;;;;;;;;5031419;28;20052;-81
2022/10/31 14:14:49;;;;;;;6.78;3.03;;;;;;;;;;5034112;28;20150;-80
2022/10/31 14:17:26;;;;;;;5.65;2.92;;;;;;;;;;5034109;28;20041;-81
2022/10/31 14:20:10;;;;;;;8.82;3.28;;;;;;;;;;5033447;28;20112;-81
2022/10/31 14:22:38;;;;;;;5.93;3.53;;;;;;;;;;5032796;28;20037;-86
2022/10/31 14:25:22;;;;;;;7.82;3.92;;;;;;;;;;5029896;28;20044;-80
2022/10/31 14:27:48;;;;;;;8.40;4.80;;;;;;;;;;5032354;28;20493;-80
2022/10/31 14:30:16;;;;;;;12.10;4.85;;;;;;;;;;5014751;28;20081;-80
2022/10/31 14:32:43;;;;;;;10.23;5.28;;;;;;;;;;5033385;28;20469;-81
2022/10/31 14:35:13;;;;;;;9.30;4.93;;;;;;;;;;5033827;28;20069;-80
2022/10/31 14:37:58;;;;;;;8.27;5.45;;;;;;;;;;5049123;28;20056;-81